Main page
METAR-TAF:

METAR-TAF

Airports :

Islay Airport

Islay, Scotland

latitude: 55-40-55N, longitude: 006-15-24W, elevation: 16 m

Current weather observation

The report was made 35 minutes ago, at 07:20 UTC
Wind 16 kt from the West/Southwest, varying between Southwest and West
Temperature 7°C
Humidity 93%
Pressure 1026 hPa
Visibility: 6000 m
light rain

METAR: EGPI 240720Z AUTO 25016KT 220V280 6000 -RA FEW016/// SCT021/// BKN035/// 07/06 Q1026

Time: 07:55 (07:55 UTC)

Forecast

The report was made 2 hours and 53 minutes ago, at 05:02 UTC
Forecast valid from 24 at 06 UTC to 24 at 15 UTC
Wind 18 kt from the West/Southwest with gusts up to 30 kt
Visibility 10 km or more
Scattered clouds at a height of 3000 ft
Temporary
from 24 at 06 UTC to 24 at 15 UTC
Visibility: 6000 m
rain showers
Probability 30% :
Temporary
from 24 at 06 UTC to 24 at 15 UTC
Visibility: 4000 m
heavy rain showers, small hail or snow pellets

TAF: EGPI 240502Z 2406/2415 25018G30KT 9999 SCT030 TEMPO 2406/2415 6000 SHRA PROB30 TEMPO 2406/2415 4000 +SHRAGS

Weather observations and forecasts of more than 4000 airports (METAR and TAF reports).

The available stations are represented by yellow and red dots on the map.

Hover mouse over dot to see the name of the station.

Then click to see weather observations and forecasts.

To change the map : click on the green buttons with a black cross to zoom in, on the green button with a dash to zoom out, or on the green arrows for adjacent maps.


METAR-TAF: